Time;durP1;ratioP1;P1;durP2;ratioP2;P2;SDS_P1;SDS_P2;PMS_P1;PMS_P2;Temp;Humidity;BMP_temperature;BMP_pressure;BME280_temperature;BME280_humidity;BME280_pressure;Samples;Min_cycle;Max_cycle;Signal;HPM_P1;HPM_P2
2021/07/08 17:36:25;;;;;;;;;;;;;;;30.10;34.19;100610.03;6263382;22;19999;-60
2021/07/08 17:38:51;;;;;;;;;;;;;;;30.07;34.02;100613.13;6063720;23;2227762;-60
2021/07/08 17:41:17;;;;;;;;;;;;;;;30.03;34.27;100618.03;6160251;23;19924;-61
2021/07/08 17:45:24;;;;;;;;;;;;;;;29.98;34.21;100621.31;5055605;27;20054;-58
2021/07/08 17:47:51;;;;;;;;;;;;;;;29.94;34.39;100620.00;5005039;28;717577;-60
2021/07/08 17:50:17;;;;;;;;;;;;;;;29.93;34.54;100621.06;5067015;28;20433;-60
2021/07/08 17:52:44;;;;;;;;;;;;;;;29.90;34.48;100624.13;5067014;28;20025;-61
2021/07/08 17:55:10;;;;;;;;;;;;;;;29.88;34.43;100620.78;5067270;28;19931;-64
2021/07/08 17:57:36;;;;;;;;;;;;;;;29.86;34.51;100633.59;5065866;28;19932;-64
2021/07/08 18:00:02;;;;;;;;;;;;;;;29.83;34.86;100631.28;5066100;28;19924;-64
2021/07/08 18:02:35;;;;;;;;;;;;;;;29.80;34.70;100637.03;5067167;28;20355;-64
2021/07/08 18:05:03;;;;;;;;;;;;;;;29.77;34.86;100625.81;5065897;28;20022;-63
2021/07/08 18:07:29;;;;;;;;;;;;;;;29.74;34.69;100628.88;5066022;28;20343;-64
2021/07/08 18:09:55;;;;;;;;;;;;;;;29.72;35.00;100634.44;5066828;28;19978;-64
2021/07/08 18:12:21;;;;;;;;;;;;;;;29.70;34.81;100633.81;5066868;28;20016;-60
2021/07/08 18:14:50;;;;;;;;;;;;;;;29.68;34.93;100638.50;5066592;28;19978;-60
2021/07/08 18:17:17;;;;;;;;;;;;;;;29.66;35.01;100631.66;5066643;28;19925;-59
2021/07/08 18:19:42;;;;;;;;;;;;;;;29.63;35.04;100635.56;5099024;28;20019;-59
2021/07/08 18:22:08;;;;;;;;;;;;;;;29.63;35.35;100634.72;5066642;28;20027;-60
2021/07/08 18:24:34;;;;;;;;;;;;;;;29.60;35.22;100638.63;5066633;28;20321;-60
2021/07/08 18:27:00;;;;;;;;;;;;;;;29.58;35.53;100640.66;5066108;28;19975;-59
2021/07/08 18:29:26;;;;;;;;;;;;;;;29.56;35.51;100645.41;5066514;28;19924;-59
2021/07/08 18:31:51;;;;;;;;;;;;;;;29.53;35.61;100640.41;5066246;28;19925;-60
2021/07/08 18:34:17;;;;;;;;;;;;;;;29.51;35.57;100645.16;5066068;28;19924;-62
2021/07/08 18:36:43;;;;;;;;;;;;;;;29.50;35.53;100653.41;5066066;28;19924;-60
2021/07/08 18:39:09;;;;;;;;;;;;;;;29.48;35.64;100658.16;5064955;28;19924;-59
2021/07/08 18:41:35;;;;;;;;;;;;;;;29.46;35.75;100661.00;5066236;28;19928;-59
2021/07/08 18:44:01;;;;;;;;;;;;;;;29.45;35.67;100662.03;5065690;28;19925;-60
2021/07/08 18:46:26;;;;;;;;;;;;;;;29.41;35.80;100666.97;5066142;28;19932;-60
2021/07/08 18:48:53;;;;;;;;;;;;;;;29.37;35.94;100660.28;5065902;28;19939;-60
2021/07/08 18:51:18;;;;;;;;;;;;;;;29.36;36.04;100657.75;5066065;28;20437;-60
2021/07/08 18:53:46;;;;;;;;;;;;;;;29.35;35.98;100664.19;5065822;28;19921;-60
2021/07/08 18:56:11;;;;;;;;;;;;;;;29.33;36.08;100663.53;5055922;28;19935;-59
2021/07/08 18:58:37;;;;;;;;;;;;;;;29.32;36.02;100672.59;5051602;28;19925;-59
2021/07/08 19:01:03;;;;;;;;;;;;;;;29.29;36.19;100667.59;5052708;28;20043;-59
2021/07/08 19:03:29;;;;;;;;;;;;;;;29.28;36.20;100668.63;5051558;28;19925;-59
2021/07/08 19:05:55;;;;;;;;;;;;;;;29.26;36.34;100668.81;5052448;28;20424;-59
2021/07/08 19:08:21;;;;;;;;;;;;;;;29.24;36.24;100670.00;5052360;28;20002;-60
2021/07/08 19:10:46;;;;;;;;;;;;;;;29.21;36.43;100681.13;5052558;28;19931;-60
2021/07/08 19:13:13;;;;;;;;;;;;;;;29.20;36.63;100679.44;5052369;28;20039;-61
2021/07/08 19:15:41;;;;;;;;;;;;;;;29.17;36.49;100679.81;5052101;28;19924;-61
2021/07/08 19:18:07;;;;;;;;;;;;;;;29.14;36.50;100685.56;5052396;28;19929;-59
2021/07/08 19:20:32;;;;;;;;;;;;;;;29.11;36.61;100680.56;5052501;28;19925;-59
2021/07/08 19:22:59;;;;;;;;;;;;;;;29.09;37.00;100688.78;5051976;28;20024;-59
2021/07/08 19:25:25;;;;;;;;;;;;;;;29.06;36.88;100688.34;5052195;28;20019;-60
2021/07/08 19:27:51;;;;;;;;;;;;;;;29.03;37.12;100688.69;5052079;28;20035;-61
2021/07/08 19:30:17;;;;;;;;;;;;;;;29.02;36.79;100690.56;5034384;28;20306;-60
2021/07/08 19:32:43;;;;;;;;;;;;;;;28.99;36.97;100687.41;5052049;28;19924;-60
2021/07/08 19:35:11;;;;;;;;;;;;;;;28.96;36.91;100689.41;5052271;28;19947;-60
2021/07/08 19:37:37;;;;;;;;;;;;;;;28.93;37.00;100692.47;5052086;28;19924;-60
2021/07/08 19:40:03;;;;;;;;;;;;;;;28.91;37.04;100689.16;5051918;28;19925;-59
2021/07/08 19:42:29;;;;;;;;;;;;;;;28.88;37.26;100692.19;5050771;28;20028;-59
2021/07/08 19:44:55;;;;;;;;;;;;;;;28.84;37.15;100688.19;5050355;28;20383;-59
2021/07/08 19:47:21;;;;;;;;;;;;;;;28.83;37.29;100685.69;5051978;28;19935;-59
2021/07/08 19:49:49;;;;;;;;;;;;;;;28.80;37.50;100691.41;5050523;28;19979;-59
2021/07/08 19:52:14;;;;;;;;;;;;;;;28.76;37.55;100690.94;5051746;28;20313;-58
2021/07/08 19:54:40;;;;;;;;;;;;;;;28.75;37.39;100689.28;5051900;28;20335;-59
2021/07/08 19:57:06;;;;;;;;;;;;;;;28.73;37.38;100693.19;5051896;28;20471;-59
2021/07/08 19:59:32;;;;;;;;;;;;;;;28.71;37.71;100696.03;5051732;28;19924;-61
2021/07/08 20:01:58;;;;;;;;;;;;;;;28.69;37.41;100695.41;5051495;28;19924;-60
2021/07/08 20:04:24;;;;;;;;;;;;;;;28.67;37.58;100697.41;5051572;28;19929;-59
2021/07/08 20:06:50;;;;;;;;;;;;;;;28.65;37.50;100696.72;5049441;28;19928;-59
2021/07/08 20:09:15;;;;;;;;;;;;;;;28.63;37.53;100692.56;5051531;28;19948;-59
2021/07/08 20:11:41;;;;;;;;;;;;;;;28.62;37.79;100685.50;5050608;28;19931;-59
2021/07/08 20:14:07;;;;;;;;;;;;;;;28.60;37.68;100690.25;5051307;28;19925;-60
2021/07/08 20:16:34;;;;;;;;;;;;;;;28.58;37.67;100686.88;5051900;28;19947;-59
2021/07/08 20:18:59;;;;;;;;;;;;;;;28.56;38.03;100687.06;5051304;28;20586;-58
2021/07/08 20:21:25;;;;;;;;;;;;;;;28.53;38.11;100691.97;5051539;28;20027;-59
2021/07/08 20:23:51;;;;;;;;;;;;;;;28.51;38.19;100684.06;5051175;28;20425;-59
2021/07/08 20:26:17;;;;;;;;;;;;;;;28.49;38.19;100679.91;5051403;28;19924;-59
2021/07/08 20:28:45;;;;;;;;;;;;;;;28.45;38.32;100687.47;5051030;28;19924;-60
2021/07/08 20:31:11;;;;;;;;;;;;;;;28.43;38.32;100686.84;5051306;28;20463;-58
2021/07/08 20:33:37;;;;;;;;;;;;;;;28.41;38.48;100678.09;5049835;28;20344;-60
2021/07/08 20:36:03;;;;;;;;;;;;;;;28.40;38.46;100681.81;5050879;28;19931;-60
2021/07/08 20:38:29;;;;;;;;;;;;;;;28.39;38.37;100690.88;5051092;28;19963;-60
2021/07/08 20:40:55;;;;;;;;;;;;;;;28.36;38.23;100691.25;5050882;28;20432;-61
2021/07/08 20:43:22;;;;;;;;;;;;;;;28.34;38.67;100693.25;5050580;28;19924;-59
2021/07/08 20:45:49;;;;;;;;;;;;;;;28.32;38.46;100693.44;5050984;28;20393;-60
2021/07/08 20:48:14;;;;;;;;;;;;;;;28.30;38.53;100695.50;5051023;28;19925;-59
2021/07/08 20:50:41;;;;;;;;;;;;;;;28.29;38.46;100703.72;5050915;28;20022;-60
2021/07/08 20:53:06;;;;;;;;;;;;;;;28.26;38.89;100691.47;5049225;28;19932;-59
2021/07/08 20:55:32;;;;;;;;;;;;;;;28.24;38.81;100698.06;5050892;28;19925;-60
2021/07/08 20:57:58;;;;;;;;;;;;;;;28.22;38.97;100698.22;5049370;28;19925;-59
2021/07/08 21:00:23;;;;;;;;;;;;;;;28.20;38.72;100702.09;5050797;28;19928;-60
2021/07/08 21:02:49;;;;;;;;;;;;;;;28.19;39.08;100705.78;5050532;28;20024;-60
2021/07/08 21:05:15;;;;;;;;;;;;;;;28.17;38.84;100711.34;5050550;28;20425;-59
2021/07/08 21:07:41;;;;;;;;;;;;;;;28.14;39.01;100703.63;5050451;28;20026;-59
2021/07/08 21:10:10;;;;;;;;;;;;;;;28.13;39.12;100706.50;5050326;28;19927;-59
2021/07/08 21:12:36;;;;;;;;;;;;;;;28.12;39.00;100702.13;5050629;28;19932;-58
2021/07/08 21:15:05;;;;;;;;;;;;;;;28.10;39.15;100704.16;5050153;28;19921;-60
2021/07/08 21:17:31;;;;;;;;;;;;;;;28.09;39.31;100707.84;5050331;28;20303;-59
2021/07/08 21:19:57;;;;;;;;;;;;;;;28.07;39.15;100710.75;5050031;28;19920;-59
2021/07/08 21:22:23;;;;;;;;;;;;;;;28.05;39.38;100704.66;5050220;28;19924;-59
2021/07/08 21:24:49;;;;;;;;;;;;;;;28.04;39.35;100707.53;5049979;28;19925;-58
2021/07/08 21:27:14;;;;;;;;;;;;;;;28.01;39.40;100705.19;5032498;28;19928;-57
2021/07/08 21:29:40;;;;;;;;;;;;;;;28.00;39.72;100704.34;5048991;28;19932;-59
2021/07/08 21:32:06;;;;;;;;;;;;;;;28.00;39.77;100706.19;5050090;28;20044;-61
2021/07/08 21:34:32;;;;;;;;;;;;;;;27.97;39.49;100706.56;5050238;28;19924;-59
2021/07/08 21:36:58;;;;;;;;;;;;;;;27.95;39.68;100702.19;5049908;28;19925;-59
2021/07/08 21:39:23;;;;;;;;;;;;;;;27.94;39.58;100703.19;5048867;28;19925;-59
2021/07/08 21:41:49;;;;;;;;;;;;;;;27.92;39.54;100705.22;5050019;28;19924;-59
2021/07/08 21:44:15;;;;;;;;;;;;;;;27.92;39.93;100705.22;5049812;28;20029;-59
2021/07/08 21:46:41;;;;;;;;;;;;;;;27.89;39.59;100700.22;5050050;28;19924;-60
2021/07/08 21:49:08;;;;;;;;;;;;;;;27.88;39.87;100709.25;5049737;28;20528;-60
2021/07/08 21:51:36;;;;;;;;;;;;;;;27.86;39.77;100705.94;5050102;28;19928;-59
2021/07/08 21:54:02;;;;;;;;;;;;;;;27.84;39.86;100702.59;5049872;28;19944;-59
2021/07/08 21:56:28;;;;;;;;;;;;;;;27.82;39.89;100709.13;5048750;28;19967;-59
2021/07/08 21:58:54;;;;;;;;;;;;;;;27.80;39.91;100709.31;5049684;28;20354;-60
2021/07/08 22:01:20;;;;;;;;;;;;;;;27.79;40.33;100715.69;5048779;28;20386;-59
2021/07/08 22:03:46;;;;;;;;;;;;;;;27.78;40.13;100714.00;5048511;28;19925;-59
2021/07/08 22:06:12;;;;;;;;;;;;;;;27.77;40.02;100711.50;5048564;28;19972;-58
2021/07/08 22:08:37;;;;;;;;;;;;;;;27.76;40.11;100712.50;5049853;28;20031;-59
2021/07/08 22:11:03;;;;;;;;;;;;;;;27.74;40.25;100712.69;5048442;28;19928;-58
2021/07/08 22:13:29;;;;;;;;;;;;;;;27.73;40.20;100716.38;5050071;28;20436;-59
2021/07/08 22:15:55;;;;;;;;;;;;;;;27.72;40.35;100722.75;5049739;28;19929;-57
2021/07/08 22:18:20;;;;;;;;;;;;;;;27.71;40.19;100720.25;5049766;28;19924;-58
2021/07/08 22:20:46;;;;;;;;;;;;;;;27.68;40.37;100718.72;5048782;28;20437;-59
2021/07/08 22:23:12;;;;;;;;;;;;;;;27.69;40.28;100725.78;5049439;28;20322;-59
2021/07/08 22:25:38;;;;;;;;;;;;;;;27.67;40.39;100733.19;5048716;28;20290;-60
2021/07/08 22:28:04;;;;;;;;;;;;;;;27.65;40.35;100740.56;5049461;28;19925;-59
2021/07/08 22:30:30;;;;;;;;;;;;;;;27.65;40.36;100735.19;5050868;28;19925;-59
2021/07/08 22:32:57;;;;;;;;;;;;;;;27.63;40.47;100742.59;5053242;28;20444;-59
2021/07/08 22:35:23;;;;;;;;;;;;;;;27.62;40.50;100738.22;5052346;28;20321;-59
2021/07/08 22:37:48;;;;;;;;;;;;;;;27.60;40.87;100732.19;5053367;28;19925;-58
2021/07/08 22:40:14;;;;;;;;;;;;;;;27.58;40.61;100742.28;5035363;28;19925;-59
2021/07/08 22:42:40;;;;;;;;;;;;;;;27.56;40.87;100741.59;5052103;28;19924;-59
2021/07/08 22:45:06;;;;;;;;;;;;;;;27.55;40.98;100742.63;5052874;28;20440;-59
2021/07/08 22:47:32;;;;;;;;;;;;;;;27.53;40.69;100747.31;5052140;28;19931;-58
2021/07/08 22:49:57;;;;;;;;;;;;;;;27.52;40.85;100742.13;5052912;28;19986;-57
2021/07/08 22:52:23;;;;;;;;;;;;;;;27.49;40.75;100748.66;5053163;28;19924;-59
2021/07/08 22:54:50;;;;;;;;;;;;;;;27.48;41.17;100741.63;5051999;28;19925;-59
2021/07/08 22:57:16;;;;;;;;;;;;;;;27.46;41.05;100746.31;5052822;28;19960;-59
2021/07/08 22:59:42;;;;;;;;;;;;;;;27.43;41.20;100741.25;5053099;28;19978;-59
2021/07/08 23:02:07;;;;;;;;;;;;;;;27.41;41.19;100738.75;5052816;28;19925;-59
2021/07/08 23:04:33;;;;;;;;;;;;;;;27.43;41.25;100746.63;5051608;28;20348;-59
2021/07/08 23:06:59;;;;;;;;;;;;;;;27.39;41.24;100739.91;5051570;28;19925;-59
2021/07/08 23:09:24;;;;;;;;;;;;;;;27.38;41.34;100749.00;5052827;28;19932;-59
2021/07/08 23:11:50;;;;;;;;;;;;;;;27.37;41.33;100750.00;5052958;28;19931;-59
2021/07/08 23:14:16;;;;;;;;;;;;;;;27.35;41.33;100749.34;5052397;28;19925;-58
2021/07/08 23:16:42;;;;;;;;;;;;;;;27.33;41.39;100745.97;5052669;28;19967;-59
2021/07/08 23:19:08;;;;;;;;;;;;;;;27.31;41.46;100748.84;5052418;28;19968;-58
2021/07/08 23:21:34;;;;;;;;;;;;;;;27.31;41.35;100753.34;5051458;28;20351;-59
2021/07/08 23:24:00;;;;;;;;;;;;;;;27.30;41.54;100757.03;5052175;28;20397;-58
2021/07/08 23:26:25;;;;;;;;;;;;;;;27.29;41.59;100752.72;5052621;28;19925;-57
2021/07/08 23:28:51;;;;;;;;;;;;;;;27.26;41.52;100756.53;5051330;28;19931;-59
2021/07/08 23:31:17;;;;;;;;;;;;;;;27.26;41.75;100753.00;5052290;28;20474;-59
2021/07/08 23:33:43;;;;;;;;;;;;;;;27.25;41.78;100757.56;5052366;28;19963;-59
2021/07/08 23:36:09;;;;;;;;;;;;;;;27.23;41.52;100754.19;5050849;28;19978;-59
2021/07/08 23:38:35;;;;;;;;;;;;;;;27.22;41.78;100760.59;5052356;28;20424;-59
2021/07/08 23:41:01;;;;;;;;;;;;;;;27.20;41.55;100759.06;5050663;28;19925;-59
